createdAt,value
2019-05-01T00:01:59.795Z,16.07
2019-05-01T00:04:58.180Z,17.27
2019-05-01T00:07:36.916Z,16.93
2019-05-01T00:10:10.037Z,16.00
2019-05-01T00:12:41.815Z,17.43
2019-05-01T00:15:15.004Z,17.20
2019-05-01T00:17:46.695Z,16.37
2019-05-01T00:20:18.600Z,17.53
2019-05-01T00:22:50.274Z,15.57
2019-05-01T00:25:22.026Z,16.17
2019-05-01T00:27:53.751Z,17.80
2019-05-01T00:30:30.046Z,16.10
2019-05-01T00:33:00.813Z,16.30
2019-05-01T00:35:32.763Z,19.27
2019-05-01T00:38:04.684Z,18.40
2019-05-01T00:40:36.484Z,16.40
2019-05-01T00:43:08.248Z,16.80
2019-05-01T00:45:40.059Z,16.77
2019-05-01T00:48:11.781Z,18.50
2019-05-01T00:50:43.504Z,19.20
2019-05-01T00:53:15.233Z,18.67
2019-05-01T00:56:09.689Z,17.77
2019-05-01T00:59:03.115Z,16.27
2019-05-01T01:01:53.710Z,18.80
2019-05-01T01:04:25.993Z,18.17
2019-05-01T01:06:57.687Z,18.33
2019-05-01T01:09:29.389Z,20.17
2019-05-01T01:12:01.112Z,18.33
2019-05-01T01:14:32.802Z,20.17
2019-05-01T01:17:04.444Z,16.87
2019-05-01T01:19:36.154Z,17.27
2019-05-01T01:22:07.898Z,17.53
2019-05-01T01:24:39.764Z,20.47
2019-05-01T01:27:11.468Z,19.70
2019-05-01T01:29:43.351Z,19.77
2019-05-01T01:32:15.027Z,21.93
2019-05-01T01:34:46.863Z,18.80
2019-05-01T01:37:18.653Z,20.43
2019-05-01T01:39:50.335Z,20.00
2019-05-01T01:42:22.708Z,19.60
2019-05-01T01:45:08.207Z,18.13
2019-05-01T01:47:59.720Z,18.00
2019-05-01T01:50:32.118Z,21.43
2019-05-01T01:53:04.227Z,19.07
2019-05-01T01:55:36.613Z,18.50
2019-05-01T01:58:09.564Z,20.57
2019-05-01T02:01:15.670Z,19.37
2019-05-01T02:03:51.595Z,21.73
2019-05-01T02:06:23.489Z,17.47
2019-05-01T02:08:56.552Z,19.10
2019-05-01T02:11:28.793Z,19.00
2019-05-01T02:14:00.522Z,20.43
2019-05-01T02:16:32.194Z,19.80
2019-05-01T02:19:04.080Z,18.17
2019-05-01T02:21:35.885Z,18.10
2019-05-01T02:24:07.569Z,19.07
2019-05-01T02:26:43.578Z,19.73
2019-05-01T02:29:23.811Z,20.33
2019-05-01T02:31:56.202Z,24.13
2019-05-01T02:34:29.266Z,20.30
2019-05-01T02:37:04.266Z,21.10
2019-05-01T02:39:38.749Z,21.20
2019-05-01T02:42:14.207Z,20.27
2019-05-01T02:44:52.088Z,20.63
2019-05-01T02:47:28.996Z,20.93
2019-05-01T02:50:11.463Z,20.93
2019-05-01T02:52:44.456Z,21.43
2019-05-01T02:55:32.121Z,22.83
2019-05-01T02:58:04.422Z,21.83
2019-05-01T03:00:36.628Z,20.93
2019-05-01T03:03:08.829Z,23.40
2019-05-01T03:05:40.823Z,21.53
2019-05-01T03:08:12.677Z,22.93
2019-05-01T03:10:44.463Z,22.47
2019-05-01T03:13:16.236Z,22.00
2019-05-01T03:15:48.220Z,22.43
2019-05-01T03:18:28.555Z,21.50
2019-05-01T03:21:14.658Z,24.10
2019-05-01T03:23:50.894Z,21.63
2019-05-01T03:26:22.892Z,26.47
2019-05-01T03:28:55.587Z,22.50
2019-05-01T03:31:27.586Z,20.60
2019-05-01T03:33:59.368Z,23.70
2019-05-01T03:36:31.138Z,25.33
2019-05-01T03:39:05.014Z,25.70
2019-05-01T03:41:36.972Z,29.57
2019-05-01T03:44:09.120Z,25.70
2019-05-01T03:46:40.996Z,24.93
2019-05-01T03:49:13.038Z,25.03
2019-05-01T03:51:45.567Z,26.80
2019-05-01T03:54:20.080Z,23.13
2019-05-01T03:56:51.961Z,25.43
2019-05-01T03:59:24.211Z,24.57
2019-05-01T04:02:32.314Z,24.63
2019-05-01T04:04:49.778Z,23.63
2019-05-01T04:07:21.801Z,22.73
2019-05-01T04:09:53.839Z,22.70
2019-05-01T04:12:26.151Z,24.83
2019-05-01T04:14:58.044Z,23.27
2019-05-01T04:17:37.628Z,22.00
2019-05-01T04:20:09.373Z,19.97
2019-05-01T04:22:42.476Z,20.17
2019-05-01T04:25:14.450Z,23.37
2019-05-01T04:27:48.408Z,22.23
2019-05-01T04:30:29.488Z,21.17
2019-05-01T04:33:04.991Z,20.93
2019-05-01T04:35:51.450Z,18.97
2019-05-01T04:38:23.231Z,18.17
2019-05-01T04:40:55.013Z,20.67
2019-05-01T04:43:27.235Z,19.60
2019-05-01T04:45:59.094Z,21.80
2019-05-01T04:48:30.973Z,20.90
2019-05-01T04:51:02.921Z,20.87
2019-05-01T04:53:35.334Z,20.10
2019-05-01T04:56:07.122Z,23.17
2019-05-01T04:58:38.808Z,20.83
2019-05-01T05:01:10.813Z,21.73
2019-05-01T05:03:42.887Z,21.43
2019-05-01T05:06:14.999Z,19.97
2019-05-01T05:08:46.900Z,19.63
2019-05-01T05:11:23.273Z,18.63
2019-05-01T05:14:15.870Z,17.93
2019-05-01T05:16:54.458Z,19.73
2019-05-01T05:19:26.172Z,17.50
2019-05-01T05:21:58.547Z,19.37
2019-05-01T05:24:30.714Z,19.83
2019-05-01T05:27:04.084Z,21.57
2019-05-01T05:29:37.289Z,18.73
2019-05-01T05:32:09.801Z,18.20
2019-05-01T05:34:45.047Z,18.80
2019-05-01T05:37:25.024Z,17.33
2019-05-01T05:40:01.419Z,18.10
2019-05-01T05:42:33.098Z,20.33
2019-05-01T05:45:05.464Z,21.90
2019-05-01T05:47:37.637Z,20.70
2019-05-01T05:50:11.190Z,19.50
2019-05-01T05:52:50.864Z,18.93
2019-05-01T05:55:30.788Z,20.00
2019-05-01T05:58:19.405Z,19.63
2019-05-01T06:01:20.848Z,21.93
2019-05-01T06:04:13.279Z,22.57
2019-05-01T06:07:19.294Z,21.27
2019-05-01T06:10:23.111Z,23.13
2019-05-01T06:13:29.332Z,23.70
2019-05-01T06:16:17.481Z,20.77
2019-05-01T06:19:09.685Z,22.07
2019-05-01T06:21:48.816Z,17.93
2019-05-01T06:24:28.183Z,18.83
2019-05-01T06:27:00.105Z,16.93
2019-05-01T06:29:35.776Z,17.27
2019-05-01T06:32:05.975Z,17.57
2019-05-01T06:34:37.684Z,19.07
2019-05-01T06:37:09.592Z,19.93
2019-05-01T06:39:42.941Z,18.93
2019-05-01T06:42:16.929Z,22.07
2019-05-01T06:45:03.654Z,25.30
2019-05-01T06:47:52.314Z,22.90
2019-05-01T06:50:36.972Z,21.57
2019-05-01T06:53:06.680Z,26.77
2019-05-01T06:55:39.230Z,26.03
2019-05-01T06:58:14.848Z,25.80
2019-05-01T07:00:44.853Z,25.60
2019-05-01T07:03:16.874Z,26.27
2019-05-01T07:05:49.051Z,24.20
2019-05-01T07:08:24.602Z,22.07
2019-05-01T07:10:55.966Z,21.33
2019-05-01T07:13:27.912Z,25.23
2019-05-01T07:16:03.224Z,26.20
2019-05-01T07:18:33.209Z,21.03
2019-05-01T07:21:05.247Z,19.70
2019-05-01T07:23:37.019Z,19.07
2019-05-01T07:26:09.983Z,18.47
2019-05-01T07:28:43.944Z,15.37
2019-05-01T07:31:16.264Z,17.80
2019-05-01T07:33:51.209Z,19.23
2019-05-01T07:36:24.848Z,19.87
2019-05-01T07:38:57.625Z,19.13
2019-05-01T07:41:33.926Z,17.00
2019-05-01T07:44:30.043Z,20.17
2019-05-01T07:47:26.034Z,19.27
2019-05-01T07:50:01.456Z,22.07
2019-05-01T07:52:34.955Z,26.10
2019-05-01T07:55:12.957Z,34.67
2019-05-01T07:57:44.555Z,32.93
2019-05-01T08:00:27.923Z,34.10
2019-05-01T08:03:02.654Z,37.63
2019-05-01T08:05:33.386Z,35.00
2019-05-01T08:08:07.908Z,34.73
2019-05-01T08:10:38.673Z,39.57
2019-05-01T08:13:10.482Z,32.27
2019-05-01T08:15:42.231Z,33.23
2019-05-01T08:18:18.675Z,32.70
2019-05-01T08:20:57.043Z,37.07
2019-05-01T08:23:29.025Z,35.47
2019-05-01T08:26:03.852Z,41.33
2019-05-01T08:28:52.195Z,39.10
2019-05-01T08:31:40.738Z,40.03
2019-05-01T08:34:14.126Z,35.60
2019-05-01T08:36:47.343Z,45.60
2019-05-01T08:39:19.435Z,42.87
2019-05-01T08:41:51.256Z,48.43
2019-05-01T08:44:29.201Z,47.27
2019-05-01T08:47:04.583Z,45.30
2019-05-01T08:49:49.822Z,48.07
2019-05-01T08:52:20.255Z,44.87
2019-05-01T08:54:54.714Z,49.83
2019-05-01T08:57:29.222Z,50.77
2019-05-01T09:00:00.275Z,51.83
2019-05-01T09:02:36.841Z,52.87
2019-05-01T09:05:09.012Z,49.70
2019-05-01T09:07:40.596Z,47.77
2019-05-01T09:10:17.160Z,49.87
2019-05-01T09:12:48.246Z,54.03
2019-05-01T09:15:20.326Z,46.80
2019-05-01T09:17:52.124Z,46.27
2019-05-01T09:20:24.081Z,49.47
2019-05-01T09:22:57.541Z,64.83
2019-05-01T09:25:37.118Z,60.40
2019-05-01T09:28:15.398Z,61.67
2019-05-01T09:31:01.318Z,50.90
2019-05-01T09:33:31.939Z,55.50
2019-05-01T09:36:03.721Z,57.60
2019-05-01T09:38:35.713Z,51.10
2019-05-01T09:41:07.823Z,48.13
2019-05-01T09:43:39.738Z,52.60
2019-05-01T09:46:11.814Z,50.07
2019-05-01T09:48:44.346Z,50.30
2019-05-01T09:51:42.210Z,54.17
2019-05-01T09:54:33.722Z,52.70
2019-05-01T09:57:05.804Z,51.90
2019-05-01T09:59:37.877Z,53.13
2019-05-01T10:02:09.940Z,52.27
2019-05-01T10:04:41.721Z,53.57
2019-05-01T10:07:14.638Z,52.73
2019-05-01T10:09:47.283Z,50.57
2019-05-01T10:12:20.286Z,56.40
2019-05-01T10:14:52.170Z,55.53
2019-05-01T10:17:24.057Z,58.50
2019-05-01T10:19:58.176Z,54.13
2019-05-01T10:22:32.978Z,59.10
2019-05-01T10:25:08.576Z,61.07
2019-05-01T10:27:42.777Z,53.10
2019-05-01T10:30:36.258Z,58.40
2019-05-01T10:33:11.898Z,55.10
2019-05-01T10:36:05.385Z,56.13
2019-05-01T10:38:48.441Z,62.23
2019-05-01T10:41:20.294Z,63.43
2019-05-01T10:43:52.230Z,59.87
2019-05-01T10:46:24.112Z,56.27
2019-05-01T10:48:57.422Z,56.00
2019-05-01T10:51:29.287Z,65.63
2019-05-01T10:54:01.087Z,68.70
2019-05-01T10:56:32.956Z,65.77
2019-05-01T10:59:04.691Z,63.50
2019-05-01T11:01:43.455Z,59.70
2019-05-01T11:04:15.257Z,60.20
2019-05-01T11:06:47.068Z,60.80
2019-05-01T11:09:18.896Z,61.70
2019-05-01T11:11:50.673Z,63.27
2019-05-01T11:14:22.518Z,61.60
2019-05-01T11:16:54.341Z,65.70
2019-05-01T11:19:26.154Z,64.20
2019-05-01T11:21:58.041Z,65.13
2019-05-01T11:24:29.777Z,64.30
2019-05-01T11:27:01.647Z,62.77
2019-05-01T11:29:33.403Z,60.53
2019-05-01T11:32:26.992Z,63.67
2019-05-01T11:35:17.687Z,63.40
2019-05-01T11:38:17.828Z,64.37
2019-05-01T11:40:55.229Z,62.63
2019-05-01T11:43:27.010Z,68.33
2019-05-01T11:45:59.078Z,74.30
2019-05-01T11:48:32.054Z,72.80
2019-05-01T11:51:05.060Z,69.03
2019-05-01T11:53:38.656Z,67.37
2019-05-01T11:56:11.745Z,68.33
2019-05-01T11:58:43.897Z,66.70
2019-05-01T12:01:19.015Z,72.57
2019-05-01T12:03:50.911Z,73.43
2019-05-01T12:06:23.433Z,71.50
2019-05-01T12:08:55.415Z,66.10
2019-05-01T12:11:29.385Z,67.30
2019-05-01T12:14:01.318Z,70.57
2019-05-01T12:16:50.660Z,66.63
2019-05-01T12:19:22.696Z,65.30
2019-05-01T12:21:54.681Z,61.67
2019-05-01T12:24:26.700Z,62.63
2019-05-01T12:27:00.012Z,57.13
2019-05-01T12:29:33.448Z,61.90
2019-05-01T12:32:05.657Z,61.70
2019-05-01T12:34:37.421Z,62.30
2019-05-01T12:37:34.355Z,60.80
2019-05-01T12:40:07.559Z,59.90
2019-05-01T12:42:39.541Z,62.93
2019-05-01T12:45:13.754Z,64.20
2019-05-01T12:48:05.780Z,65.10
2019-05-01T12:50:37.638Z,59.00
2019-05-01T12:53:25.620Z,53.37
2019-05-01T12:56:16.265Z,58.40
2019-05-01T12:58:50.257Z,51.60
2019-05-01T13:01:22.017Z,49.33
2019-05-01T13:03:53.775Z,48.63
2019-05-01T13:06:25.609Z,50.00
2019-05-01T13:08:57.416Z,51.20
2019-05-01T13:11:29.243Z,49.30
2019-05-01T13:14:01.005Z,50.50
2019-05-01T13:16:32.801Z,49.67
2019-05-01T13:19:04.556Z,48.13
2019-05-01T13:21:36.560Z,53.30
2019-05-01T13:24:08.286Z,49.50
2019-05-01T13:26:45.138Z,48.80
2019-05-01T13:29:30.752Z,49.00
2019-05-01T13:32:33.318Z,48.10
2019-05-01T13:35:05.903Z,45.97
2019-05-01T13:37:37.778Z,42.73
2019-05-01T13:40:11.264Z,40.17
2019-05-01T13:42:43.014Z,41.17
2019-05-01T13:45:15.197Z,41.43
2019-05-01T13:47:47.075Z,38.00
2019-05-01T13:50:19.039Z,39.57
2019-05-01T13:52:50.860Z,40.87
2019-05-01T13:55:22.518Z,35.87
2019-05-01T13:57:54.368Z,36.53
2019-05-01T14:00:28.203Z,36.57
2019-05-01T14:02:59.944Z,39.00
2019-05-01T14:05:31.749Z,37.53
2019-05-01T14:08:03.554Z,38.47
2019-05-01T14:10:35.314Z,38.23
2019-05-01T14:13:07.113Z,34.40
2019-05-01T14:15:38.929Z,34.30
2019-05-01T14:18:10.675Z,35.27
2019-05-01T14:20:55.837Z,34.00
2019-05-01T14:23:37.840Z,31.43
2019-05-01T14:26:09.581Z,33.60
2019-05-01T14:28:41.313Z,33.13
2019-05-01T14:31:17.192Z,33.07
2019-05-01T14:33:48.957Z,33.10
2019-05-01T14:36:20.828Z,34.33
2019-05-01T14:38:55.583Z,33.00
2019-05-01T14:41:27.346Z,33.50
2019-05-01T14:44:01.094Z,30.73
2019-05-01T14:46:35.007Z,31.40
2019-05-01T14:49:06.872Z,32.00
2019-05-01T14:51:38.615Z,31.50
2019-05-01T14:54:10.379Z,33.93
2019-05-01T14:56:43.460Z,33.17
2019-05-01T14:59:15.252Z,32.80
2019-05-01T15:01:52.484Z,32.57
2019-05-01T15:04:25.705Z,32.93
2019-05-01T15:06:59.003Z,32.37
2019-05-01T15:09:30.788Z,32.50
2019-05-01T15:12:04.187Z,32.07
2019-05-01T15:14:56.635Z,31.90
2019-05-01T15:17:33.899Z,32.80
2019-05-01T15:20:07.895Z,30.47
2019-05-01T15:22:42.247Z,28.47
2019-05-01T15:25:17.245Z,30.87
2019-05-01T15:27:51.378Z,29.20
2019-05-01T15:30:25.261Z,28.90
2019-05-01T15:32:56.974Z,30.47
2019-05-01T15:35:28.787Z,30.07
2019-05-01T15:38:00.586Z,28.90
2019-05-01T15:40:41.462Z,30.10
2019-05-01T15:43:33.712Z,28.10
2019-05-01T15:46:05.456Z,29.37
2019-05-01T15:48:37.311Z,28.27
2019-05-01T15:51:09.151Z,31.80
2019-05-01T15:53:40.881Z,28.20
2019-05-01T15:56:12.685Z,28.40
2019-05-01T15:58:46.253Z,27.77
2019-05-01T16:01:17.990Z,27.00
2019-05-01T16:03:49.789Z,28.73
2019-05-01T16:06:21.560Z,26.30
2019-05-01T16:08:53.378Z,27.43
2019-05-01T16:11:50.724Z,27.93
2019-05-01T16:14:22.475Z,28.23
2019-05-01T16:16:54.193Z,26.73
2019-05-01T16:19:25.970Z,27.43
2019-05-01T16:21:57.776Z,27.77
2019-05-01T16:24:29.509Z,26.63
2019-05-01T16:27:01.282Z,27.27
2019-05-01T16:29:33.112Z,29.03
2019-05-01T16:32:05.093Z,29.27
2019-05-01T16:34:36.844Z,27.43
2019-05-01T16:37:08.679Z,26.93
2019-05-01T16:39:56.534Z,30.43
2019-05-01T16:42:36.276Z,29.10
2019-05-01T16:45:09.068Z,28.53
2019-05-01T16:47:40.820Z,30.50
2019-05-01T16:50:12.959Z,26.70
2019-05-01T16:52:44.733Z,28.37
2019-05-01T16:55:17.197Z,29.00
2019-05-01T16:57:49.125Z,29.30
2019-05-01T17:00:39.631Z,28.80
2019-05-01T17:03:22.142Z,31.33
2019-05-01T17:06:00.151Z,27.43
2019-05-01T17:08:46.567Z,29.20
2019-05-01T17:11:20.614Z,26.33
2019-05-01T17:13:52.350Z,29.50
2019-05-01T17:16:24.387Z,28.93
2019-05-01T17:18:56.201Z,26.73
2019-05-01T17:21:27.904Z,30.17
2019-05-01T17:23:59.648Z,29.97
2019-05-01T17:26:31.983Z,28.10
2019-05-01T17:29:03.734Z,29.23
2019-05-01T17:31:35.530Z,29.57
2019-05-01T17:34:09.693Z,28.17
2019-05-01T17:36:40.862Z,30.37
2019-05-01T17:39:13.602Z,29.77
2019-05-01T17:41:45.380Z,31.83
2019-05-01T17:44:20.146Z,29.33
2019-05-01T17:46:50.567Z,28.80
2019-05-01T17:49:22.349Z,27.33
2019-05-01T17:51:54.225Z,29.93
2019-05-01T17:54:26.035Z,28.37
2019-05-01T17:56:58.850Z,30.37
2019-05-01T17:59:30.590Z,30.00
2019-05-01T18:02:36.350Z,29.93
2019-05-01T18:05:36.074Z,30.33
2019-05-01T18:08:08.018Z,33.00
2019-05-01T18:10:39.878Z,31.13
2019-05-01T18:13:11.667Z,35.60
2019-05-01T18:15:43.427Z,30.70
2019-05-01T18:18:16.542Z,29.57
2019-05-01T18:20:48.382Z,31.00
2019-05-01T18:23:42.837Z,31.53
2019-05-01T18:26:28.830Z,31.67
2019-05-01T18:31:45.310Z,35.47
2019-05-01T18:34:17.209Z,35.93
2019-05-01T18:36:55.029Z,32.63
2019-05-01T18:39:35.054Z,32.53
2019-05-01T18:42:09.536Z,32.03
2019-05-01T18:44:47.456Z,28.83
2019-05-01T18:47:17.254Z,31.30
2019-05-01T18:49:49.280Z,29.67
2019-05-01T18:52:21.653Z,30.57
2019-05-01T18:54:53.596Z,31.07
2019-05-01T18:57:25.800Z,30.53
2019-05-01T18:59:58.902Z,33.97
2019-05-01T19:02:30.934Z,30.67
2019-05-01T19:05:04.242Z,28.83
2019-05-01T19:07:36.617Z,34.47
2019-05-01T19:10:08.913Z,32.87
2019-05-01T19:12:41.742Z,34.57
2019-05-01T19:15:14.247Z,29.53
2019-05-01T19:17:46.826Z,33.57
2019-05-01T19:20:19.376Z,30.43
2019-05-01T19:22:51.548Z,29.77
2019-05-01T19:25:23.849Z,28.87
2019-05-01T19:27:56.118Z,33.73
2019-05-01T19:30:29.907Z,33.23
2019-05-01T19:33:02.626Z,31.03
2019-05-01T19:35:35.771Z,30.10
2019-05-01T19:38:08.013Z,31.27
2019-05-01T19:40:40.430Z,32.60
2019-05-01T19:43:12.752Z,30.93
2019-05-01T19:45:45.336Z,32.13
2019-05-01T19:48:17.253Z,35.83
2019-05-01T19:50:49.652Z,32.33
2019-05-01T19:53:21.672Z,31.67
2019-05-01T19:55:55.087Z,29.90
2019-05-01T19:58:27.264Z,32.67
2019-05-01T20:01:07.381Z,32.93
2019-05-01T20:03:40.577Z,29.50
2019-05-01T20:06:13.887Z,31.53
2019-05-01T20:08:46.068Z,33.70
2019-05-01T20:11:19.605Z,32.17
2019-05-01T20:13:51.888Z,34.47
2019-05-01T20:16:24.364Z,33.97
2019-05-01T20:18:56.537Z,32.07
2019-05-01T20:21:28.605Z,29.50
2019-05-01T20:24:04.509Z,36.20
2019-05-01T20:26:34.661Z,32.90
2019-05-01T20:29:07.977Z,35.10
2019-05-01T20:31:40.192Z,35.20
2019-05-01T20:34:17.363Z,30.03
2019-05-01T20:36:46.297Z,33.10
2019-05-01T20:39:20.166Z,30.83
2019-05-01T20:41:55.095Z,33.07
2019-05-01T20:44:28.897Z,32.67
2019-05-01T20:47:03.940Z,33.63
2019-05-01T20:49:36.546Z,34.57
2019-05-01T20:52:10.068Z,33.67
2019-05-01T20:54:42.625Z,38.13
2019-05-01T20:57:24.940Z,33.73
2019-05-01T20:59:57.106Z,35.43
2019-05-01T21:02:29.643Z,34.40
2019-05-01T21:05:18.694Z,33.50
2019-05-01T21:08:20.147Z,32.83
2019-05-01T21:10:57.476Z,33.80
2019-05-01T21:13:32.014Z,35.03
2019-05-01T21:16:04.300Z,33.93
2019-05-01T21:18:38.378Z,36.70
2019-05-01T21:21:10.540Z,35.77
2019-05-01T21:23:48.027Z,36.73
2019-05-01T21:26:20.045Z,33.77
2019-05-01T21:28:54.279Z,34.87
2019-05-01T21:31:26.254Z,33.40
2019-05-01T21:33:58.383Z,33.00
2019-05-01T21:36:30.385Z,36.03
2019-05-01T21:39:02.392Z,34.90
2019-05-01T21:41:34.396Z,36.47
2019-05-01T21:44:06.862Z,32.50
2019-05-01T21:46:39.207Z,34.07
2019-05-01T21:49:13.039Z,31.93
2019-05-01T21:51:46.276Z,31.10
2019-05-01T21:54:20.756Z,28.80
2019-05-01T21:56:54.825Z,31.80
2019-05-01T21:59:26.937Z,28.87
2019-05-01T22:02:01.056Z,27.33
2019-05-01T22:04:35.442Z,25.83
2019-05-01T22:07:07.891Z,26.63
2019-05-01T22:09:45.792Z,24.97
2019-05-01T22:12:17.270Z,24.83
2019-05-01T22:15:06.157Z,23.73
2019-05-01T22:18:01.184Z,24.93
2019-05-01T22:20:38.799Z,28.13
2019-05-01T22:23:21.930Z,24.33
2019-05-01T22:25:57.670Z,26.33
2019-05-01T22:28:35.713Z,21.97
2019-05-01T22:31:29.482Z,24.00
2019-05-01T22:34:10.614Z,27.33
2019-05-01T22:36:42.517Z,21.40
2019-05-01T22:39:14.813Z,24.57
2019-05-01T22:41:46.713Z,25.87
2019-05-01T22:44:19.683Z,23.40
2019-05-01T22:46:51.694Z,25.10
2019-05-01T22:49:24.738Z,20.03
2019-05-01T22:51:57.925Z,21.63
2019-05-01T22:54:29.826Z,20.13
2019-05-01T22:57:01.950Z,21.57
2019-05-01T22:59:33.848Z,23.47
2019-05-01T23:02:13.370Z,21.30
2019-05-01T23:04:48.303Z,20.83
2019-05-01T23:07:20.883Z,20.40
2019-05-01T23:09:52.738Z,21.37
2019-05-01T23:12:24.716Z,21.63
2019-05-01T23:14:57.502Z,23.63
2019-05-01T23:17:39.592Z,23.37
2019-05-01T23:20:13.135Z,22.40
2019-05-01T23:22:45.053Z,22.77
2019-05-01T23:25:17.368Z,24.10
2019-05-01T23:27:49.205Z,22.93
2019-05-01T23:30:22.893Z,22.00
2019-05-01T23:32:54.752Z,24.00
2019-05-01T23:35:26.846Z,23.53
2019-05-01T23:37:58.892Z,23.43
2019-05-01T23:40:30.980Z,25.40
2019-05-01T23:43:02.963Z,23.50
2019-05-01T23:45:34.951Z,23.50
2019-05-01T23:48:06.792Z,25.93
2019-05-01T23:50:38.720Z,21.30
2019-05-01T23:53:13.882Z,23.33
2019-05-01T23:55:44.111Z,25.37
2019-05-01T23:58:16.426Z,20.27
